Bookmark and Share
Track history (hours):
 

Heinz Schepers

Last reported at 2014-Apr-16 04:33 UTC. Time now 2014-Apr-16 05:18 UTC.
Position N 34°39' E 033°01'.

Length 101 m; draft 6.8 m.

Type: Cargo ship. MMSI: 304596000.

NotesDate/timePositionNaut miles runAvg speedWind from/ knotsBaromVisibWave heightAir tempDewpointWater temp
2014-Apr-16 04:33N 34°39' E 033°01'0 0.3
2014-Apr-16 03:33N 34°39' E 033°02'3 2.8
2014-Apr-16 02:32N 34°41' E 033°04'0 0.0
2014-Apr-16 01:29N 34°41' E 033°04'0 0.0
2014-Apr-16 00:32N 34°41' E 033°04'0 0.0
2014-Apr-15 23:31N 34°41' E 033°04'0 0.0
2014-Apr-15 22:31N 34°41' E 033°04'0 0.0
2014-Apr-15 21:31N 34°41' E 033°04'0 0.0
2014-Apr-15 20:31N 34°41' E 033°04'0 0.0
2014-Apr-15 19:31N 34°41' E 033°04'0 0.0
2014-Apr-15 18:31N 34°41' E 033°04'0 0.0
2014-Apr-15 17:31N 34°41' E 033°04'0 0.0
2014-Apr-15 16:31N 34°41' E 033°04'0 0.0
2014-Apr-15 15:31N 34°41' E 033°04'0 0.0
2014-Apr-15 14:31N 34°41' E 033°04'0 0.0
2014-Apr-15 12:32N 34°41' E 033°04'0 0.0
2014-Apr-15 11:32N 34°41' E 033°04'0 0.0
2014-Apr-15 10:32N 34°41' E 033°04'0 0.0
2014-Apr-15 09:32N 34°41' E 033°04'0 0.0
2014-Apr-15 08:32N 34°41' E 033°04'0 0.0
2014-Apr-15 07:31N 34°41' E 033°04'0 0.0
2014-Apr-15 06:31N 34°41' E 033°04'0 0.0
2014-Apr-15 05:31N 34°41' E 033°04'0 0.0
2014-Apr-15 03:31N 34°41' E 033°04'2 2.1
2014-Apr-15 02:34N 34°39' E 033°05'1110.9
2014-Apr-15 01:34N 34°32' E 032°54'1413.7
2014-Apr-15 00:34N 34°36' E 032°38'  
2014-Apr-09 21:28N 37°26' E 026°45'1314.8
2014-Apr-09 20:33N 37°15' E 026°54'30513.8
2014-Apr-08 22:30N 34°41' E 032°20'1313.7
2014-Apr-08 21:33N 34°37' E 032°35'1414.4
2014-Apr-08 20:33N 34°33' E 032°52'1110.7
2014-Apr-08 19:33N 34°38' E 033°03'2 2.3
2014-Apr-08 18:33N 34°39' E 033°01'0 0.0
2014-Apr-08 17:33N 34°39' E 033°01'0 0.0
2014-Apr-08 16:33N 34°39' E 033°01'0 0.0
2014-Apr-08 15:33N 34°39' E 033°01'0 0.0
2014-Apr-08 14:33N 34°39' E 033°01'0 0.0
2014-Apr-08 13:32N 34°39' E 033°01'0 0.0
2014-Apr-08 12:32N 34°39' E 033°01'0 0.0
2014-Apr-08 11:32N 34°39' E 033°01'0 0.0
2014-Apr-08 10:32N 34°39' E 033°01'0 0.0
2014-Apr-08 09:32N 34°39' E 033°01'0 0.0
2014-Apr-08 08:32N 34°39' E 033°01'0 0.0
2014-Apr-08 07:32N 34°39' E 033°01'0 0.0
2014-Apr-08 06:32N 34°39' E 033°01'0 0.0
2014-Apr-08 05:32N 34°39' E 033°01'0 0.0
2014-Apr-08 04:32N 34°39' E 033°01'0 0.1
2014-Apr-08 03:33N 34°39' E 033°01'4 3.7
2014-Apr-08 02:31N 34°41' E 033°05'0 0.0
2014-Apr-08 01:31N 34°41' E 033°05'0 0.0
2014-Apr-08 00:31N 34°41' E 033°05'0 0.0
2014-Apr-07 23:31N 34°41' E 033°05'0 0.0
2014-Apr-07 22:31N 34°41' E 033°05'0 0.0
2014-Apr-07 21:31N 34°41' E 033°05'0 0.0
2014-Apr-07 20:31N 34°41' E 033°05'0 0.0
2014-Apr-07 19:31N 34°41' E 033°05'0 0.0
2014-Apr-07 17:28N 34°41' E 033°05'6 6.7
2014-Apr-07 16:33N 34°35' E 033°04'1312.6
2014-Apr-07 15:33N 34°33' E 032°49'1514.5
2014-Apr-07 14:33N 34°37' E 032°32'31713.5
2014-Apr-06 15:06N 37°16' E 026°53'713.7
2014-Apr-06 14:33N 37°22' E 026°48'1413.9
2014-Apr-06 13:33N 37°34' E 026°38'1313.2
2014-Apr-06 12:33N 37°44' E 026°27'3013.7
2014-Apr-06 10:22N 37°59' E 025°55'1413.6
2014-Apr-06 09:19N 38°07' E 025°39'  

Dump ship's entire track history

sailing weather and tide predictions

Heinz Schepers — V2OM7 — position and weather